Current Weather

Chicago/Rockford Intl

Rockford, Illinois (KRFD)

Report from: Wednesday, September 28, 2022 4:54 AM CDT
Current time: Wednesday, September 28, 2022 5:24 AM CDT

Nearby weather
Weather history
Weather forecast

Temperature6.1°C (43.0°F)
Wind chill3.1°C (37.7°F)
Dew point4.4°C (39.9°F)
Winds 8 kts (4.1 m/s, 9.2 mph) North (360°)
Visibility10 mi. (16.1 km)
Clouds Sky clear
Altimeter30.40 in.Hg (1029 mB)
Relative humidity89 %
Density altitude-1,499 ft. (-457 m)
Sea-level pressure103.0 kPa (1030 mB, 30.41 in.Hg)
Remarks Automated weather observing station with precipitation discriminator
Flight conditions Visual Meteorological Conditions
Raw dataKRFD 280954Z 36008KT 10SM CLR 06/04 A3040 RMK AO2 SLP298 T00610044
An error has occurred. This application may no longer respond until reloaded. Reload 🗙